Time;durP1;ratioP1;P1;durP2;ratioP2;P2;SDS_P1;SDS_P2;PMS_P1;PMS_P2;Temp;Humidity;BMP_temperature;BMP_pressure;BME280_temperature;BME280_humidity;BME280_pressure;Samples;Min_cycle;Max_cycle;Signal;HPM_P1;HPM_P2
2023/04/14 00:01:44;;;;;;;5.43;0.97;;;;;;;16.86;60.13;95926.97;10307894;28;20449;-26
2023/04/14 00:06:44;;;;;;;4.55;1.33;;;;;;;16.87;60.12;95920.22;10290840;28;20092;-25
2023/04/14 00:11:44;;;;;;;3.55;0.98;;;;;;;16.87;59.63;95918.53;10324652;28;20100;-25
2023/04/14 00:16:45;;;;;;;3.83;1.10;;;;;;;16.88;59.50;95909.25;10292489;28;20027;-25
2023/04/14 00:21:45;;;;;;;1.25;0.60;;;;;;;16.86;59.28;95906.75;10298622;28;20031;-25
2023/04/14 00:26:46;;;;;;;3.73;0.80;;;;;;;16.85;59.36;95909.28;10278759;28;20030;-25
2023/04/14 00:31:49;;;;;;;4.10;1.07;;;;;;;16.84;59.19;95910.97;10284127;28;20034;-26
2023/04/14 00:36:49;;;;;;;2.38;0.80;;;;;;;16.84;59.41;95917.72;10300220;28;20141;-25
2023/04/14 00:41:49;;;;;;;1.98;0.90;;;;;;;16.84;59.22;95907.63;10298623;28;20567;-25
2023/04/14 00:46:50;;;;;;;10.93;3.05;;;;;;;16.81;59.37;95916.06;10290556;28;20030;-25
2023/04/14 00:51:51;;;;;;;2.30;0.85;;;;;;;16.81;58.36;95916.06;10275235;28;20291;-25
2023/04/14 00:56:52;;;;;;;3.20;0.85;;;;;;;16.81;59.08;95910.16;10288266;28;20371;-25
2023/04/14 01:01:54;;;;;;;4.35;0.88;;;;;;;16.79;58.55;95906.78;10297741;28;20529;-25
2023/04/14 01:06:55;;;;;;;1.88;0.80;;;;;;;16.81;58.69;95907.66;10285804;28;20026;-25
2023/04/14 01:12:43;;;;;;;2.08;0.70;;;;;;;16.79;59.27;95920.28;10313561;28;20037;-25
2023/04/14 01:17:49;;;;;;;4.13;0.70;;;;;;;16.82;59.59;95911.84;10275287;28;20415;-25
2023/04/14 01:22:57;;;;;;;1.58;0.75;;;;;;;16.83;59.02;95928.69;10280941;28;20035;-25
2023/04/14 01:28:35;;;;;;;2.80;0.63;;;;;;;16.86;57.43;95933.72;10276346;28;20037;-25
2023/04/14 01:33:45;;;;;;;1.67;0.70;;;;;;;16.84;57.86;95930.38;10299448;28;20316;-25
2023/04/14 01:38:47;;;;;;;2.47;0.90;;;;;;;16.85;57.48;95949.72;10283138;28;20508;-25
2023/04/14 01:43:52;;;;;;;3.50;0.90;;;;;;;16.87;57.27;95955.63;10280962;28;20030;-25
2023/04/14 01:48:56;;;;;;;2.47;0.73;;;;;;;16.84;57.55;95958.16;10286874;28;20030;-25
2023/04/14 01:53:58;;;;;;;2.10;0.82;;;;;;;16.83;57.46;95961.56;10273077;28;20031;-25
2023/04/14 01:59:00;;;;;;;2.35;0.77;;;;;;;16.83;57.74;95951.44;10283341;28;20031;-25
2023/04/14 02:04:01;;;;;;;1.58;0.60;;;;;;;16.81;57.86;95948.09;10270508;28;20181;-25
2023/04/14 02:09:04;;;;;;;1.77;0.55;;;;;;;16.78;57.68;95943.88;10285618;28;20022;-25
2023/04/14 02:14:08;;;;;;;1.15;0.75;;;;;;;16.80;58.01;95956.50;10299069;28;20018;-25
2023/04/14 02:19:08;;;;;;;2.30;0.77;;;;;;;16.80;57.33;95948.91;10278520;28;20027;-25
2023/04/14 02:24:09;;;;;;;1.30;0.80;;;;;;;16.83;58.29;95953.97;10281431;28;20505;-25
2023/04/14 02:29:12;;;;;;;1.35;0.70;;;;;;;16.85;58.52;95954.78;10269546;28;20023;-25
2023/04/14 02:34:14;;;;;;;1.88;0.63;;;;;;;16.83;58.34;95951.44;10280477;28;20493;-25
2023/04/14 02:39:18;;;;;;;1.63;0.50;;;;;;;16.82;57.64;95955.63;10282177;28;20030;-25
2023/04/14 02:44:24;;;;;;;0.77;0.65;;;;;;;16.86;57.04;95951.41;10294204;28;20059;-25
2023/04/14 02:49:26;;;;;;;1.37;0.60;;;;;;;16.85;56.80;95954.78;10295644;28;20118;-25
2023/04/14 02:54:27;;;;;;;1.58;0.50;;;;;;;16.83;57.26;95951.44;10297843;28;20027;-26
2023/04/14 02:59:29;;;;;;;3.25;0.63;;;;;;;16.83;57.37;95956.50;10280653;28;20126;-25
2023/04/14 03:04:37;;;;;;;2.10;0.80;;;;;;;16.82;56.68;95954.81;10286297;28;20027;-25
2023/04/14 03:09:41;;;;;;;0.70;0.43;;;;;;;16.80;56.93;95954.81;10294015;28;20050;-25
2023/04/14 03:14:43;;;;;;;0.93;0.50;;;;;;;16.81;57.01;95968.31;10289628;28;20109;-25
2023/04/14 03:19:47;;;;;;;1.10;0.50;;;;;;;16.79;57.17;95959.88;10303365;28;20030;-25
2023/04/14 03:24:49;;;;;;;2.00;0.65;;;;;;;16.79;57.42;95954.81;10284287;28;20027;-25
2023/04/14 03:29:57;;;;;;;1.05;0.60;;;;;;;16.77;57.08;95962.44;10280266;28;20054;-25
2023/04/14 03:35:01;;;;;;;1.17;0.45;;;;;;;16.78;57.44;95968.31;10271642;28;20059;-25
2023/04/14 03:40:04;;;;;;;1.85;0.60;;;;;;;16.80;57.90;95971.66;10283790;28;20287;-25
2023/04/14 03:45:07;;;;;;;1.55;0.60;;;;;;;16.83;58.21;95971.66;10293121;28;20045;-25
2023/04/14 03:50:11;;;;;;;2.70;0.55;;;;;;;16.82;57.46;95972.50;10273960;28;20027;-25
2023/04/14 03:55:17;;;;;;;2.10;0.90;;;;;;;16.79;56.93;95969.97;10263562;28;20029;-26
2023/04/14 04:00:19;;;;;;;1.47;0.80;;;;;;;16.79;57.08;95972.50;10293076;28;20040;-25
2023/04/14 04:05:21;;;;;;;2.25;0.70;;;;;;;16.81;56.36;95979.25;10268625;28;20031;-25
2023/04/14 04:10:22;;;;;;;0.93;0.57;;;;;;;16.84;56.66;95983.44;10295189;28;20066;-25
2023/04/14 04:15:30;;;;;;;2.60;1.08;;;;;;;16.83;56.95;95991.88;10269484;28;20509;-25
2023/04/14 04:20:31;;;;;;;;;;;;;;;16.86;55.68;95987.66;10277816;28;20034;-25
2023/04/14 04:25:35;;;;;;;1.45;0.60;;;;;;;16.88;55.41;95997.72;10294181;28;20261;-26
2023/04/14 04:30:46;;;;;;;4.65;0.50;;;;;;;16.90;55.95;95991.00;10275922;28;20424;-25
2023/04/14 04:35:48;;;;;;;1.90;0.50;;;;;;;16.92;54.97;96002.75;10286957;28;20035;-25
2023/04/14 04:40:48;;;;;;;0.95;0.68;;;;;;;16.93;56.02;96003.63;10293838;28;20065;-25
2023/04/14 04:46:10;;;;;;;4.03;1.38;;;;;;;16.86;56.05;96007.03;10288981;28;20402;-25
2023/04/14 04:51:11;;;;;;;7.75;1.05;;;;;;;16.94;56.56;96010.34;10267161;28;20059;-25
2023/04/14 04:56:12;;;;;;;6.13;1.70;;;;;;;16.81;52.86;96008.75;10274286;28;20041;-25
2023/04/14 05:01:14;;;;;;;3.60;0.93;;;;;;;16.68;51.58;96012.16;10305504;28;20397;-25
2023/04/14 05:06:15;;;;;;;4.70;1.75;;;;;;;16.77;52.50;96014.66;10292196;28;20034;-25
2023/04/14 05:11:15;;;;;;;2.88;0.95;;;;;;;16.78;52.95;96016.34;10302449;28;20038;-25
2023/04/14 05:16:17;;;;;;;3.93;1.50;;;;;;;16.80;52.55;96024.75;10302169;28;20081;-25
2023/04/14 05:21:17;;;;;;;9.75;1.30;;;;;;;16.78;53.51;96029.81;10305910;28;20066;-26
2023/04/14 05:26:18;;;;;;;3.20;1.05;;;;;;;16.79;52.60;96026.44;10283394;28;20386;-25
2023/04/14 05:31:19;;;;;;;3.20;1.27;;;;;;;16.80;52.73;96030.66;10289096;28;20037;-25
2023/04/14 05:36:19;;;;;;;9.32;1.17;;;;;;;16.79;54.39;96026.44;10315962;28;20113;-25
2023/04/14 05:41:20;;;;;;;6.40;1.73;;;;;;;16.78;54.91;96024.78;10309820;28;20068;-25
2023/04/14 05:46:21;;;;;;;4.93;1.45;;;;;;;16.78;54.52;96034.88;10278059;28;20297;-25
2023/04/14 05:51:21;;;;;;;4.23;1.10;;;;;;;16.80;54.08;96040.75;10311000;28;20022;-25
2023/04/14 05:56:21;;;;;;;7.30;1.40;;;;;;;16.71;52.69;96032.38;10317076;28;20065;-25
2023/04/14 06:01:22;;;;;;;5.20;1.03;;;;;;;16.76;55.42;96040.78;10298035;28;20528;-25
2023/04/14 06:06:22;;;;;;;22.57;1.90;;;;;;;16.77;53.97;96034.06;10308123;28;20325;-25
2023/04/14 06:11:22;;;;;;;7.90;1.67;;;;;;;16.78;56.27;96034.03;10323227;28;20368;-25
2023/04/14 06:16:23;;;;;;;5.90;1.23;;;;;;;16.75;54.97;96039.09;10292556;28;20038;-25
2023/04/14 06:21:23;;;;;;;7.00;1.30;;;;;;;16.75;55.58;96029.81;10285413;28;20027;-25
2023/04/14 06:26:24;;;;;;;7.17;1.40;;;;;;;16.75;55.27;96029.00;10315192;28;20274;-25
2023/04/14 06:31:24;;;;;;;4.63;1.65;;;;;;;16.75;54.67;96024.75;10298369;28;20018;-25
2023/04/14 06:36:25;;;;;;;5.33;1.30;;;;;;;16.73;55.04;96007.94;10317845;28;20077;-25
2023/04/14 06:41:26;;;;;;;2.67;1.05;;;;;;;16.72;55.30;96013.84;10315579;28;20533;-25
2023/04/14 06:46:26;;;;;;;4.77;1.33;;;;;;;16.72;55.14;96011.31;10291645;28;20117;-25
2023/04/14 06:51:27;;;;;;;5.57;1.63;;;;;;;16.71;55.31;95996.97;10284470;28;20078;-25
2023/04/14 06:56:27;;;;;;;4.57;1.50;;;;;;;16.72;55.31;95998.69;10295624;28;20309;-25
2023/04/14 07:01:27;;;;;;;3.83;1.25;;;;;;;16.77;54.54;95993.63;10307277;28;20504;-25
2023/04/14 07:06:28;;;;;;;3.30;1.03;;;;;;;16.77;55.05;95992.75;10313708;28;20032;-25
2023/04/14 07:11:29;;;;;;;7.93;1.23;;;;;;;16.79;54.91;95985.16;10310158;28;20037;-25
2023/04/14 07:16:29;;;;;;;9.52;1.20;;;;;;;16.84;54.02;95978.41;10293861;28;20031;-25
2023/04/14 07:21:30;;;;;;;5.77;1.50;;;;;;;16.92;56.13;95971.59;10300223;28;20042;-26
2023/04/14 07:26:31;;;;;;;4.30;1.33;;;;;;;16.91;54.59;95970.75;10300126;28;20038;-26
2023/04/14 07:31:33;;;;;;;2.00;0.97;;;;;;;16.91;54.03;95964.88;10307031;28;20034;-26
2023/04/14 07:36:34;;;;;;;5.97;1.13;;;;;;;16.89;52.14;95966.59;10296817;28;20084;-25
2023/04/14 07:41:34;;;;;;;4.53;1.00;;;;;;;16.89;52.14;95959.00;10294624;28;20386;-25
2023/04/14 07:46:34;;;;;;;2.55;1.00;;;;;;;16.88;52.97;95958.16;10310537;28;20355;-25
2023/04/14 07:51:35;;;;;;;4.30;1.53;;;;;;;16.88;50.92;95954.75;10296220;28;20041;-25
2023/04/14 07:56:35;;;;;;;10.40;1.60;;;;;;;16.84;50.79;95948.06;10303086;28;20039;-26
2023/04/14 08:01:36;;;;;;;10.65;1.55;;;;;;;16.81;51.45;95951.44;10309170;28;20035;-25
2023/04/14 08:06:36;;;;;;;20.95;2.30;;;;;;;16.88;50.30;95954.75;10298075;28;20045;-25
2023/04/14 08:11:37;;;;;;;20.33;2.15;;;;;;;16.85;49.62;95937.09;10288191;28;20042;-25
2023/04/14 08:16:37;;;;;;;11.17;1.67;;;;;;;16.88;49.21;95948.03;10302094;28;20034;-25
2023/04/14 08:21:37;;;;;;;8.07;1.67;;;;;;;16.87;49.33;95950.56;10292178;28;20043;-26
2023/04/14 08:26:39;;;;;;;6.97;1.60;;;;;;;16.85;49.31;95947.22;10303692;28;20523;-25
2023/04/14 08:31:39;;;;;;;10.48;2.08;;;;;;;16.95;54.86;95946.28;10278313;28;20506;-25
2023/04/14 08:36:40;;;;;;;12.97;2.00;;;;;;;16.96;52.53;95935.34;10297340;28;20038;-25
2023/04/14 08:41:41;;;;;;;4.82;1.90;;;;;;;16.89;49.41;95933.72;10303217;28;20039;-25
2023/04/14 08:46:42;;;;;;;4.15;1.20;;;;;;;16.88;49.21;95934.53;10303880;28;20137;-25
2023/04/14 08:51:44;;;;;;;7.10;1.55;;;;;;;16.85;49.29;95935.41;10302558;28;20070;-25
2023/04/14 08:56:46;;;;;;;4.05;1.10;;;;;;;16.86;49.10;95933.72;10286586;28;20068;-25
2023/04/14 09:01:46;;;;;;;6.65;1.17;;;;;;;16.85;48.95;95924.47;10293584;28;20034;-25
2023/04/14 09:06:47;;;;;;;3.10;1.30;;;;;;;16.86;48.70;95928.66;10266124;28;20047;-25
2023/04/14 09:11:48;;;;;;;6.43;1.77;;;;;;;16.89;49.13;95931.19;10315800;28;20041;-25
2023/04/14 09:16:52;;;;;;;4.60;1.45;;;;;;;16.88;49.02;95929.47;10320724;28;20490;-25
2023/04/14 09:21:53;;;;;;;6.82;1.80;;;;;;;16.86;49.03;95923.59;10294976;28;20506;-25
2023/04/14 09:26:55;;;;;;;6.20;1.92;;;;;;;16.86;48.95;95929.50;10315621;28;20034;-25
2023/04/14 09:31:56;;;;;;;4.68;1.50;;;;;;;16.88;48.70;95919.38;10301586;28;20035;-25
2023/04/14 09:37:05;;;;;;;7.25;4.07;;;;;;;16.88;49.64;95916.84;10315620;28;20416;-25
2023/04/14 09:42:08;;;;;;;7.03;2.00;;;;;;;16.95;54.58;95916.81;10309266;28;20069;-25
2023/04/14 09:47:08;;;;;;;5.63;2.47;;;;;;;16.97;55.08;95914.25;10296743;28;20130;-25
2023/04/14 09:52:09;;;;;;;16.60;3.37;;;;;;;16.94;50.89;95906.69;10293241;28;20042;-25
2023/04/14 09:57:09;;;;;;;11.63;3.57;;;;;;;16.92;50.13;95913.47;10307508;28;20289;-26
2023/04/14 10:02:10;;;;;;;7.95;2.25;;;;;;;16.86;49.27;95910.97;10289075;28;20030;-25
2023/04/14 10:07:11;;;;;;;10.98;2.95;;;;;;;16.76;49.91;95911.88;10304164;28;20446;-25
2023/04/14 10:12:13;;;;;;;4.40;2.90;;;;;;;16.81;48.63;95912.69;10312546;28;20114;-25
2023/04/14 10:17:16;;;;;;;7.65;2.17;;;;;;;16.82;48.63;95900.03;10302948;28;20035;-25
2023/04/14 10:22:17;;;;;;;4.15;1.30;;;;;;;16.83;47.52;95885.72;10290611;28;20034;-25
2023/04/14 10:27:19;;;;;;;3.85;1.63;;;;;;;16.82;47.92;95889.09;10292747;28;20034;-25
2023/04/14 10:32:22;;;;;;;4.25;1.20;;;;;;;16.81;47.98;95884.91;10304683;28;20026;-25
2023/04/14 10:37:22;;;;;;;6.20;1.52;;;;;;;16.79;47.83;95872.25;10303761;28;20023;-25
2023/04/14 10:42:23;;;;;;;7.60;1.50;;;;;;;16.82;47.49;95863.81;10286554;28;20066;-24
2023/04/14 10:47:23;;;;;;;9.02;1.52;;;;;;;16.85;47.33;95863.78;10318531;28;20085;-26
2023/04/14 10:52:24;;;;;;;3.50;1.20;;;;;;;16.91;47.70;95863.75;10309271;28;20073;-25
2023/04/14 10:57:29;;;;;;;6.63;1.80;;;;;;;17.00;49.17;95856.09;10305781;28;20797;-25
2023/04/14 11:02:31;;;;;;;4.20;1.58;;;;;;;17.00;47.60;95848.50;10297579;28;20348;-25
2023/04/14 11:07:46;;;;;;;13.65;1.85;;;;;;;16.97;46.97;95841.78;10289879;28;20030;-25
2023/04/14 11:13:09;;;;;;;8.43;1.80;;;;;;;16.90;47.06;95841.84;10284706;28;20110;-25
2023/04/14 11:18:13;;;;;;;11.23;2.88;;;;;;;16.92;48.37;95835.09;10305277;28;20031;-26
2023/04/14 11:23:15;;;;;;;5.25;2.10;;;;;;;16.92;48.02;95830.84;10296040;28;20043;-25
2023/04/14 11:28:25;;;;;;;9.85;2.28;;;;;;;16.93;48.60;95821.59;10285318;28;20081;-25
2023/04/14 11:33:27;;;;;;;5.95;2.10;;;;;;;16.90;47.28;95814.03;10317088;28;20036;-25
2023/04/14 11:38:28;;;;;;;6.13;2.10;;;;;;;16.90;46.84;95803.94;10282369;28;20034;-25
2023/04/14 11:43:31;;;;;;;6.15;2.15;;;;;;;16.91;46.94;95793.78;10283178;28;20401;-25
2023/04/14 11:48:31;;;;;;;7.40;1.63;;;;;;;16.94;48.55;95795.47;10302955;28;20042;-25
2023/04/14 11:53:33;;;;;;;7.23;1.67;;;;;;;16.97;48.36;95787.84;10276347;28;20050;-26
2023/04/14 11:58:33;;;;;;;3.60;1.48;;;;;;;16.95;48.40;95785.34;10280973;28;20526;-25
2023/04/14 12:03:35;;;;;;;4.30;1.67;;;;;;;16.97;48.61;95772.66;10308524;28;20062;-26
2023/04/14 12:08:35;;;;;;;5.93;1.83;;;;;;;17.07;51.41;95766.69;10304080;28;20034;-25
2023/04/14 12:13:40;;;;;;;8.70;1.67;;;;;;;17.09;50.23;95767.50;10300111;28;20047;-25
2023/04/14 12:18:41;;;;;;;4.88;1.40;;;;;;;17.03;48.93;95757.44;10286380;28;20271;-25
2023/04/14 12:23:44;;;;;;;6.28;1.20;;;;;;;16.98;48.46;95759.19;10311559;28;20034;-25
2023/04/14 12:28:53;;;;;;;5.18;0.95;;;;;;;16.96;48.59;95750.78;10303802;28;20090;-25
2023/04/14 12:33:59;;;;;;;1.35;0.90;;;;;;;16.92;48.43;95739.03;10295285;28;20030;-25
2023/04/14 12:39:05;;;;;;;4.68;1.45;;;;;;;16.91;48.50;95732.28;10295425;28;20074;-25
2023/04/14 12:44:19;;;;;;;2.67;0.95;;;;;;;16.88;48.22;95732.31;10292344;28;20490;-25
2023/04/14 12:49:36;;;;;;;16.75;2.05;;;;;;;16.90;46.37;95726.38;10297488;28;20394;-25
2023/04/14 12:54:46;;;;;;;5.72;1.08;;;;;;;16.86;48.00;95721.38;10309624;28;20513;-25
2023/04/14 12:59:47;;;;;;;9.75;1.52;;;;;;;16.87;47.74;95715.47;10297467;28;20053;-25
2023/04/14 13:04:48;;;;;;;2.83;1.13;;;;;;;16.87;47.94;95705.34;10293199;28;20046;-25
2023/04/14 13:09:50;;;;;;;5.95;1.55;;;;;;;16.89;47.96;95701.16;10300165;28;20045;-25
2023/04/14 13:14:52;;;;;;;2.70;0.90;;;;;;;16.93;48.57;95690.13;10292749;28;20035;-25
2023/04/14 13:19:52;;;;;;;5.75;1.30;;;;;;;17.03;50.87;95687.50;10292860;28;20038;-25
2023/04/14 13:24:55;;;;;;;6.47;1.43;;;;;;;17.07;51.69;95685.78;10302402;28;20041;-25
2023/04/14 13:29:55;;;;;;;3.03;1.13;;;;;;;16.98;48.56;95673.25;10290160;28;20046;-25
2023/04/14 13:34:56;;;;;;;2.00;0.80;;;;;;;16.90;47.76;95654.78;10285019;28;20095;-26
2023/04/14 13:39:56;;;;;;;2.83;1.17;;;;;;;16.89;48.23;95664.03;10318397;28;20038;-25
2023/04/14 13:44:57;;;;;;;5.50;1.20;;;;;;;16.86;48.13;95664.09;10290023;28;20039;-26
2023/04/14 13:49:57;;;;;;;4.15;1.35;;;;;;;16.83;48.37;95653.19;10300094;28;20043;-25
2023/04/14 13:54:57;;;;;;;6.20;1.00;;;;;;;16.81;47.71;95639.72;10295281;28;20041;-25
2023/04/14 13:59:58;;;;;;;1.30;0.57;;;;;;;16.79;47.48;95641.41;10307691;28;20421;-25
2023/04/14 14:04:59;;;;;;;1.75;0.70;;;;;;;16.82;47.62;95633.81;10298402;28;20066;-25
2023/04/14 14:10:00;;;;;;;3.17;1.05;;;;;;;16.82;47.40;95624.53;10316974;28;20034;-24
2023/04/14 14:15:01;;;;;;;1.67;0.60;;;;;;;16.82;47.48;95621.16;10294415;28;20493;-25
2023/04/14 14:20:01;;;;;;;2.50;0.77;;;;;;;16.82;47.53;95622.00;10289456;28;20034;-25
2023/04/14 14:25:02;;;;;;;3.67;1.33;;;;;;;16.85;48.27;95613.53;10290754;28;20039;-25
2023/04/14 14:30:03;;;;;;;3.60;0.90;;;;;;;16.91;49.56;95610.97;10293370;28;20800;-25
2023/04/14 14:35:03;;;;;;;5.15;1.33;;;;;;;17.02;52.57;95607.44;10319708;28;20034;-25
2023/04/14 14:40:05;;;;;;;2.88;0.93;;;;;;;16.95;48.38;95607.53;10291654;28;20572;-25
2023/04/14 14:45:09;;;;;;;1.10;0.68;;;;;;;16.88;47.84;95603.38;10309368;28;20113;-25
2023/04/14 14:50:10;;;;;;;2.35;0.82;;;;;;;16.85;47.21;95598.38;10297665;28;20108;-27
2023/04/14 14:55:10;;;;;;;1.40;0.93;;;;;;;16.82;47.40;95601.78;10307721;28;20149;-25
2023/04/14 15:00:11;;;;;;;1.93;0.70;;;;;;;16.81;47.05;95601.81;10296488;28;20581;-26
2023/04/14 15:05:11;;;;;;;1.58;0.70;;;;;;;16.78;46.83;95596.78;10311795;28;20038;-25
2023/04/14 15:10:13;;;;;;;6.70;0.97;;;;;;;16.69;45.99;95596.88;10299826;28;20041;-25
2023/04/14 15:15:14;;;;;;;2.67;0.95;;;;;;;16.74;46.72;95592.63;10310065;28;20104;-25
2023/04/14 15:20:14;;;;;;;5.28;1.00;;;;;;;16.70;46.49;95593.50;10273169;28;20616;-25
2023/04/14 15:25:15;;;;;;;5.72;1.20;;;;;;;16.73;46.67;95590.09;10299204;28;20031;-25
2023/04/14 15:30:15;;;;;;;4.88;1.00;;;;;;;16.74;46.49;95578.28;10303990;28;20628;-25
2023/04/14 15:35:16;;;;;;;6.85;1.48;;;;;;;16.85;48.81;95585.75;10301308;28;20497;-25
2023/04/14 15:40:16;;;;;;;10.38;2.13;;;;;;;16.97;51.24;95583.06;10310721;28;20508;-25
2023/04/14 15:45:17;;;;;;;8.85;1.48;;;;;;;16.97;49.38;95580.53;10311284;28;20061;-25
2023/04/14 15:50:17;;;;;;;16.65;1.55;;;;;;;16.84;47.88;95579.84;10300356;28;20039;-25
2023/04/14 15:55:18;;;;;;;12.20;1.60;;;;;;;16.74;45.55;95572.41;10296780;28;20027;-25
2023/04/14 16:00:18;;;;;;;6.15;1.60;;;;;;;16.63;45.35;95564.09;10292546;28;20142;-25
2023/04/14 16:05:19;;;;;;;3.17;0.75;;;;;;;16.70;46.04;95570.75;10296626;28;20039;-25
2023/04/14 16:10:21;;;;;;;3.45;1.05;;;;;;;16.73;46.03;95573.25;10296046;28;20051;-25
2023/04/14 16:15:21;;;;;;;6.40;1.10;;;;;;;16.72;46.21;95574.13;10298082;28;20448;-26
2023/04/14 16:20:22;;;;;;;2.63;0.75;;;;;;;16.72;46.51;95581.69;10292978;28;20097;-25
2023/04/14 16:25:23;;;;;;;2.78;0.90;;;;;;;16.71;46.42;95580.00;10287763;28;20504;-25
2023/04/14 16:30:25;;;;;;;3.38;0.80;;;;;;;16.71;46.19;95581.72;10293984;28;20038;-25
2023/04/14 16:35:26;;;;;;;4.40;0.90;;;;;;;16.73;46.51;95583.38;10293026;28;20049;-25
2023/04/14 16:40:26;;;;;;;8.50;1.20;;;;;;;16.71;46.09;95582.53;10283115;28;20059;-25
2023/04/14 16:45:30;;;;;;;3.10;0.80;;;;;;;16.73;46.72;95585.91;10299704;28;20305;-25
2023/04/14 16:50:30;;;;;;;6.40;1.42;;;;;;;16.90;54.25;95584.81;10305714;28;20386;-25
2023/04/14 16:55:34;;;;;;;7.00;1.40;;;;;;;16.95;55.19;95582.25;10286785;28;20023;-25
2023/04/14 17:00:34;;;;;;;3.78;1.63;;;;;;;16.92;48.34;95582.28;10292885;28;20039;-25
2023/04/14 17:05:35;;;;;;;1.15;0.60;;;;;;;16.87;47.32;95576.44;10299610;28;20047;-25
2023/04/14 17:10:37;;;;;;;8.75;1.30;;;;;;;16.85;47.13;95580.69;10294228;28;20038;-25
2023/04/14 17:15:38;;;;;;;2.20;0.88;;;;;;;16.83;46.98;95577.34;10297827;28;20042;-25
2023/04/14 17:20:39;;;;;;;2.17;0.98;;;;;;;16.81;46.76;95579.88;10307483;28;20046;-25
2023/04/14 17:25:41;;;;;;;1.75;0.60;;;;;;;16.80;47.00;95579.88;10294430;28;20030;-25
2023/04/14 17:30:42;;;;;;;5.68;0.60;;;;;;;16.78;46.74;95579.94;10295908;28;20133;-25
2023/04/14 17:35:42;;;;;;;1.50;0.70;;;;;;;16.78;46.94;95579.94;10315572;28;20060;-25
2023/04/14 17:40:42;;;;;;;2.53;0.60;;;;;;;16.78;46.89;95579.94;10304012;28;20054;-25
2023/04/14 17:45:44;;;;;;;2.33;0.80;;;;;;;16.78;46.63;95579.06;10306437;28;20085;-25
2023/04/14 17:50:45;;;;;;;1.90;0.52;;;;;;;16.79;46.56;95570.63;10303597;28;20792;-25
2023/04/14 17:55:45;;;;;;;2.67;0.60;;;;;;;16.78;46.45;95579.06;10317962;22;20026;-30
2023/04/14 18:00:46;;;;;;;3.25;0.77;;;;;;;16.87;50.41;95578.97;10349667;28;20038;-30
2023/04/14 18:05:47;;;;;;;3.53;1.17;;;;;;;16.94;54.72;95575.50;10349568;28;20040;-30
2023/04/14 18:10:47;;;;;;;2.95;1.02;;;;;;;16.92;50.25;95573.00;10335151;28;20389;-30
2023/04/14 18:15:48;;;;;;;2.30;1.10;;;;;;;16.88;47.98;95575.59;10338109;28;20054;-30
2023/04/14 18:20:49;;;;;;;2.53;0.80;;;;;;;16.85;47.30;95578.16;10337641;28;20301;-30
2023/04/14 18:25:58;;;;;;;1.25;0.68;;;;;;;16.82;47.02;95575.69;10332577;28;20476;-30
2023/04/14 18:30:58;;;;;;;1.48;1.13;;;;;;;16.82;46.89;95576.50;10415123;22;20084;-30
2023/04/14 18:35:59;;;;;;;1.23;0.70;;;;;;;16.83;46.63;95579.88;10379991;28;20130;-30
2023/04/14 18:41:03;;;;;;;1.95;1.10;;;;;;;16.80;46.95;95587.47;10372150;28;20443;-30
2023/04/14 18:46:04;;;;;;;2.78;1.17;;;;;;;16.80;46.76;95597.59;10372269;28;20072;-29
2023/04/14 18:51:06;;;;;;;2.23;1.20;;;;;;;16.80;46.53;95597.59;10377268;28;20034;-30
2023/04/14 18:56:07;;;;;;;1.42;0.70;;;;;;;16.82;46.35;95606.00;10372262;28;20034;-28
2023/04/14 19:01:08;;;;;;;1.98;1.08;;;;;;;16.79;46.23;95601.81;10376508;28;20037;-28
2023/04/14 19:06:08;;;;;;;2.10;0.95;;;;;;;16.79;46.23;95595.91;10445753;22;20456;-31
2023/04/14 19:11:09;;;;;;;2.07;0.90;;;;;;;16.82;46.85;95601.78;10403308;28;20041;-33
2023/04/14 19:16:12;;;;;;;3.70;0.90;;;;;;;16.91;54.90;95605.91;10407880;22;20049;-25
2023/04/14 19:21:13;;;;;;;2.95;0.98;;;;;;;16.92;55.05;95610.09;10390728;28;20061;-26
2023/04/14 19:26:17;;;;;;;2.95;1.15;;;;;;;16.88;48.62;95611.81;10395752;28;20396;-26
2023/04/14 19:31:18;;;;;;;1.00;0.70;;;;;;;16.85;47.29;95616.91;10386864;28;20514;-26
2023/04/14 19:36:19;;;;;;;1.60;0.70;;;;;;;16.85;47.11;95621.13;10395091;28;20038;-25
2023/04/14 19:41:19;;;;;;;1.73;0.60;;;;;;;16.85;46.90;95626.19;10379816;28;20067;-25
2023/04/14 19:46:19;;;;;;;1.10;0.70;;;;;;;16.81;46.57;95627.09;10392929;28;20358;-26
2023/04/14 19:51:20;;;;;;;1.13;0.77;;;;;;;16.80;46.65;95623.72;10417200;22;20044;-24
2023/04/14 19:56:21;;;;;;;1.95;0.63;;;;;;;16.81;46.41;95624.56;10405078;28;20087;-24
2023/04/14 20:01:22;;;;;;;1.70;0.80;;;;;;;16.82;46.54;95626.22;10336705;28;20492;-25
2023/04/14 20:06:23;;;;;;;0.93;0.50;;;;;;;16.80;46.07;95631.28;10328398;28;20046;-25
2023/04/14 20:11:26;;;;;;;1.13;0.70;;;;;;;16.79;46.56;95633.81;10358050;28;20403;-24
2023/04/14 20:16:27;;;;;;;1.58;0.80;;;;;;;16.79;46.36;95641.41;10351348;28;20046;-24
2023/04/14 20:26:41;;;;;;;0.98;0.60;;;;;;;16.88;54.47;95632.03;10396487;22;20308;-29
2023/04/14 20:31:43;;;;;;;1.15;0.50;;;;;;;16.90;54.81;95629.50;10401030;28;20069;-29
2023/04/14 20:36:43;;;;;;;1.25;0.60;;;;;;;16.88;49.76;95636.25;10391133;28;20113;-29
2023/04/14 20:41:45;;;;;;;1.40;0.70;;;;;;;16.84;47.43;95639.69;10386224;28;20112;-28
2023/04/14 20:46:47;;;;;;;1.45;0.70;;;;;;;16.86;46.91;95645.53;10388303;28;20049;-29
2023/04/14 20:51:47;;;;;;;2.85;0.98;;;;;;;16.86;46.58;95643.03;10389074;28;20044;-29
2023/04/14 20:56:49;;;;;;;2.40;0.80;;;;;;;16.85;46.41;95646.41;10412391;22;20597;-28
2023/04/14 21:01:50;;;;;;;2.83;0.70;;;;;;;16.85;45.98;95653.97;10346540;28;20396;-28
2023/04/14 21:06:51;;;;;;;1.40;0.60;;;;;;;16.84;46.42;95650.59;10358945;28;20030;-28
2023/04/14 21:11:51;;;;;;;2.25;1.00;;;;;;;16.84;45.69;95639.69;10360352;28;20037;-28
2023/04/14 21:16:52;;;;;;;1.63;0.80;;;;;;;16.84;46.12;95649.78;10343915;28;20535;-28
2023/04/14 21:21:53;;;;;;;3.60;0.87;;;;;;;16.83;45.79;95643.06;10350174;28;20292;-28
2023/04/14 21:26:53;;;;;;;1.10;0.70;;;;;;;16.85;45.91;95646.41;10365212;28;20022;-27
2023/04/14 21:31:54;;;;;;;2.08;1.08;;;;;;;16.85;46.11;95641.34;10358582;28;20030;-28
2023/04/14 21:36:56;;;;;;;2.10;1.17;;;;;;;16.85;48.78;95647.25;10344267;28;20484;-28
2023/04/14 21:41:56;;;;;;;0.85;0.55;;;;;;;16.89;54.17;95643.00;10348210;28;20026;-28
2023/04/14 21:46:57;;;;;;;1.40;0.83;;;;;;;16.89;54.30;95643.00;10355327;28;20030;-29
2023/04/14 21:51:57;;;;;;;1.47;0.80;;;;;;;16.86;48.13;95643.88;10327871;28;20488;-28
2023/04/14 21:57:00;;;;;;;1.23;0.88;;;;;;;16.86;46.90;95640.50;10339731;28;20034;-28
2023/04/14 22:02:00;;;;;;;1.15;0.70;;;;;;;16.83;46.99;95643.06;10345657;28;20034;-28
2023/04/14 22:07:01;;;;;;;1.20;0.90;;;;;;;16.82;46.73;95638.88;10339149;28;20035;-28
2023/04/14 22:12:02;;;;;;;1.50;1.17;;;;;;;16.85;46.54;95651.47;10347418;28;20498;-27
2023/04/14 22:17:02;;;;;;;6.72;1.17;;;;;;;16.64;47.69;95661.81;10349368;28;20504;-34
2023/04/14 22:22:03;;;;;;;5.60;1.10;;;;;;;16.72;47.60;95667.63;10341813;28;20141;-27
2023/04/14 22:27:03;;;;;;;2.67;1.00;;;;;;;16.73;47.65;95667.59;10333424;28;20764;-27
2023/04/14 22:32:04;;;;;;;1.47;0.90;;;;;;;16.74;47.39;95665.91;10332146;28;20116;-28
2023/04/14 22:37:05;;;;;;;2.38;0.80;;;;;;;16.74;47.31;95668.44;10336634;28;20568;-27
2023/04/14 22:42:06;;;;;;;1.67;0.88;;;;;;;16.74;46.60;95670.97;10339935;28;20102;-27
2023/04/14 22:47:06;;;;;;;3.38;0.85;;;;;;;16.74;46.81;95673.50;10329097;28;20030;-28
2023/04/14 22:52:06;;;;;;;3.83;0.80;;;;;;;16.83;53.12;95673.41;10356045;28;20476;-28
2023/04/14 22:57:07;;;;;;;2.47;1.30;;;;;;;16.87;54.63;95675.88;10343906;28;20284;-28
2023/04/14 23:02:08;;;;;;;1.80;0.95;;;;;;;16.84;48.96;95675.88;10337825;28;20312;-27
2023/04/14 23:07:08;;;;;;;5.07;0.87;;;;;;;16.80;46.61;95673.41;10330695;28;20071;-28
2023/04/14 23:12:09;;;;;;;4.13;1.27;;;;;;;16.80;46.45;95686.91;10335198;28;20281;-28
2023/04/14 23:17:10;;;;;;;2.23;0.80;;;;;;;16.80;46.00;95683.50;10342473;28;20610;-28
2023/04/14 23:22:11;;;;;;;2.10;0.80;;;;;;;16.80;46.00;95683.50;10332911;28;20037;-28
2023/04/14 23:27:11;;;;;;;2.08;0.90;;;;;;;16.79;46.04;95682.69;10328494;28;20048;-27